Terminal Aerodrome Forecast
Issued by NWS Paducah, KY

Home | Current Version | Previous Version | Text Only | Print | Product List | Glossary On
Versions: 1 2 3 4 5 6 7 8 9 10 11 12 13 14 15 16
000
FTUS43 KPAH 191735
TAFEVV
TAF
KEVV 191735Z 1918/2018 25006KT P6SM SCT030 BKN060
     FM191900 25006KT P6SM FEW030 SCT090
     FM192000 VRB03KT P6SM FEW040 SCT130 PROB30 2010/2011 4SM -TSRA
      BR BKN060CB=

USA.gov is the U.S. government's official web portal to all federal, state and local government web resources and services.